createdAt,value
2023-03-14T00:01:46.152Z,3.80
2023-03-14T00:04:48.506Z,4.43
2023-03-14T00:07:50.774Z,3.75
2023-03-14T00:10:52.983Z,4.50
2023-03-14T00:13:55.287Z,4.47
2023-03-14T00:16:57.534Z,4.40
2023-03-14T00:20:05.446Z,3.90
2023-03-14T00:23:07.824Z,4.75
2023-03-14T00:26:15.155Z,4.28
2023-03-14T00:29:17.402Z,4.60
2023-03-14T00:32:21.509Z,4.60
2023-03-14T00:35:23.845Z,4.55
2023-03-14T00:38:26.970Z,4.68
2023-03-14T00:41:29.223Z,4.95
2023-03-14T00:44:31.762Z,4.68
2023-03-14T00:47:34.087Z,4.70
2023-03-14T00:50:36.504Z,4.85
2023-03-14T00:53:39.640Z,4.65
2023-03-14T00:56:41.916Z,5.50
2023-03-14T00:59:44.203Z,4.75
2023-03-14T01:02:46.613Z,4.50
2023-03-14T01:05:48.889Z,4.75
2023-03-14T01:08:51.840Z,5.28
2023-03-14T01:11:54.206Z,4.60
2023-03-14T01:14:56.635Z,5.22
2023-03-14T01:18:00.193Z,4.70
2023-03-14T01:21:04.534Z,4.90
2023-03-14T01:24:07.695Z,4.65
2023-03-14T01:27:10.063Z,5.00
2023-03-14T01:30:13.700Z,5.03
2023-03-14T01:33:16.055Z,4.93
2023-03-14T01:36:20.397Z,4.88
2023-03-14T01:39:22.898Z,5.25
2023-03-14T01:42:25.331Z,5.22
2023-03-14T01:46:05.203Z,4.97
2023-03-14T01:49:43.907Z,4.57
2023-03-14T01:52:49.585Z,4.82
2023-03-14T01:55:54.054Z,11.52
2023-03-14T01:58:56.514Z,19.35
2023-03-14T02:01:58.949Z,8.68
2023-03-14T02:05:01.638Z,6.93
2023-03-14T02:08:12.871Z,10.52
2023-03-14T02:11:28.200Z,8.52
2023-03-14T02:14:38.806Z,10.85
2023-03-14T02:17:52.941Z,9.40
2023-03-14T02:21:38.417Z,6.57
2023-03-14T02:25:07.951Z,5.43
2023-03-14T02:28:10.947Z,5.40
2023-03-14T02:31:14.818Z,5.38
2023-03-14T02:34:18.440Z,5.07
2023-03-14T02:37:22.450Z,5.03
2023-03-14T02:40:24.935Z,5.60
2023-03-14T02:43:29.013Z,5.20
2023-03-14T02:46:36.024Z,4.90
2023-03-14T02:49:38.334Z,4.88
2023-03-14T02:52:40.592Z,5.03
2023-03-14T02:55:47.333Z,5.28
2023-03-14T02:58:51.587Z,4.68
2023-03-14T03:02:05.567Z,4.93
2023-03-14T03:05:08.366Z,4.85
2023-03-14T03:08:11.428Z,5.40
2023-03-14T03:11:13.767Z,5.35
2023-03-14T03:14:16.111Z,5.07
2023-03-14T03:17:18.576Z,5.10
2023-03-14T03:20:20.907Z,5.03
2023-03-14T03:23:23.170Z,5.30
2023-03-14T03:26:25.586Z,5.57
2023-03-14T03:29:27.919Z,5.38
2023-03-14T03:32:30.843Z,5.22
2023-03-14T03:35:33.580Z,5.30
2023-03-14T03:38:36.662Z,5.37
2023-03-14T03:41:40.592Z,4.80
2023-03-14T03:44:43.176Z,4.55
2023-03-14T03:47:46.668Z,5.13
2023-03-14T03:50:49.090Z,4.55
2023-03-14T03:53:57.481Z,5.20
2023-03-14T03:57:06.632Z,5.18
2023-03-14T04:00:13.088Z,4.47
2023-03-14T04:03:18.008Z,4.60
2023-03-14T04:06:20.851Z,4.57
2023-03-14T04:09:25.381Z,4.20
2023-03-14T04:12:43.889Z,4.43
2023-03-14T04:15:49.899Z,4.13
2023-03-14T04:18:58.966Z,4.28
2023-03-14T04:22:03.208Z,4.32
2023-03-14T04:25:11.081Z,3.77
2023-03-14T04:28:18.740Z,4.22
2023-03-14T04:31:22.782Z,4.43
2023-03-14T04:34:26.419Z,4.35
2023-03-14T04:37:31.787Z,4.53
2023-03-14T04:40:34.258Z,7.90
2023-03-14T04:43:40.670Z,5.60
2023-03-14T04:46:44.988Z,3.80
2023-03-14T04:49:48.602Z,4.40
2023-03-14T04:52:52.245Z,4.32
2023-03-14T04:56:22.675Z,4.20
2023-03-14T04:59:25.143Z,3.88
2023-03-14T05:02:30.648Z,4.20
2023-03-14T05:05:53.291Z,4.25
2023-03-14T05:09:13.506Z,5.20
2023-03-14T05:12:28.536Z,8.67
2023-03-14T05:15:42.010Z,5.30
2023-03-14T05:18:58.034Z,4.93
2023-03-14T05:22:16.674Z,4.50
2023-03-14T05:25:31.618Z,4.00
2023-03-14T05:28:58.150Z,4.23
2023-03-14T05:32:33.934Z,4.40
2023-03-14T05:36:09.217Z,4.47
2023-03-14T05:39:30.378Z,4.13
2023-03-14T05:42:51.330Z,3.97
2023-03-14T05:46:12.372Z,3.83
2023-03-14T05:49:34.403Z,3.88
2023-03-14T05:52:55.537Z,4.10
2023-03-14T05:56:07.604Z,3.88
2023-03-14T05:59:18.713Z,4.00
2023-03-14T06:02:32.774Z,3.80
2023-03-14T06:05:42.947Z,3.70
2023-03-14T06:08:45.329Z,3.90
2023-03-14T06:11:47.949Z,3.67
2023-03-14T06:14:50.598Z,3.72
2023-03-14T06:17:55.560Z,3.83
2023-03-14T06:20:58.000Z,3.42
2023-03-14T06:24:02.386Z,4.90
2023-03-14T06:27:07.941Z,3.78
2023-03-14T06:30:14.181Z,4.03
2023-03-14T06:33:16.527Z,4.63
2023-03-14T06:36:18.948Z,4.07
2023-03-14T06:39:23.046Z,3.95
2023-03-14T06:42:34.717Z,3.35
2023-03-14T06:45:37.161Z,4.15
2023-03-14T06:48:39.926Z,3.50
2023-03-14T06:51:43.410Z,3.90
2023-03-14T06:54:47.556Z,3.88
2023-03-14T06:57:50.118Z,3.97
2023-03-14T07:00:54.645Z,3.65
2023-03-14T07:04:01.238Z,3.77
2023-03-14T07:07:06.751Z,13.65
2023-03-14T07:10:13.543Z,6.55
2023-03-14T07:13:16.001Z,3.70
2023-03-14T07:16:40.705Z,3.83
2023-03-14T07:19:44.572Z,3.73
2023-03-14T07:22:50.008Z,4.05
2023-03-14T07:25:55.179Z,3.60
2023-03-14T07:29:00.604Z,3.63
2023-03-14T07:32:02.949Z,3.35
2023-03-14T07:35:06.866Z,4.20
2023-03-14T07:38:13.118Z,3.85
2023-03-14T07:41:27.987Z,3.92
2023-03-14T07:44:50.392Z,3.42
2023-03-14T07:47:59.399Z,4.45
2023-03-14T07:51:07.214Z,3.73
2023-03-14T07:54:13.289Z,4.50
2023-03-14T07:57:18.366Z,4.20
2023-03-14T08:00:21.278Z,4.28
2023-03-14T08:03:23.632Z,3.65
2023-03-14T08:06:26.900Z,3.50
2023-03-14T08:09:33.430Z,3.47
2023-03-14T08:12:35.972Z,3.60
2023-03-14T08:15:38.298Z,3.60
2023-03-14T08:18:40.623Z,3.42
2023-03-14T08:21:42.900Z,3.20
2023-03-14T08:24:45.150Z,2.90
2023-03-14T08:27:47.422Z,3.25
2023-03-14T08:30:49.855Z,3.10
2023-03-14T08:33:56.084Z,3.80
2023-03-14T08:36:58.379Z,3.13
2023-03-14T08:40:01.037Z,3.33
2023-03-14T08:43:03.475Z,3.17
2023-03-14T08:46:06.010Z,2.25
2023-03-14T08:49:08.511Z,1.73
2023-03-14T08:52:11.034Z,2.33
2023-03-14T08:55:15.505Z,3.13
2023-03-14T08:58:17.953Z,3.20
2023-03-14T09:01:20.531Z,3.75
2023-03-14T09:04:23.279Z,2.35
2023-03-14T09:07:25.597Z,2.67
2023-03-14T09:10:28.083Z,4.93
2023-03-14T09:13:33.697Z,2.75
2023-03-14T09:16:45.345Z,2.83
2023-03-14T09:19:48.616Z,3.30
2023-03-14T09:22:53.457Z,2.37
2023-03-14T09:25:59.354Z,4.03
2023-03-14T09:29:14.712Z,2.60
2023-03-14T09:32:18.000Z,2.88
2023-03-14T09:35:29.214Z,3.13
2023-03-14T09:38:38.161Z,2.80
2023-03-14T09:41:42.857Z,3.40
2023-03-14T09:45:11.630Z,2.88
2023-03-14T09:48:22.029Z,2.97
2023-03-14T09:51:25.099Z,3.28
2023-03-14T09:54:39.834Z,2.70
2023-03-14T09:57:43.123Z,3.05
2023-03-14T10:00:46.242Z,3.05
2023-03-14T10:03:48.964Z,2.58
2023-03-14T10:06:51.307Z,3.25
2023-03-14T10:09:53.658Z,3.00
2023-03-14T10:13:12.105Z,2.60
2023-03-14T10:16:15.110Z,2.42
2023-03-14T10:19:18.475Z,2.97
2023-03-14T10:22:24.214Z,2.80
2023-03-14T10:25:30.321Z,2.70
2023-03-14T10:28:46.742Z,2.65
2023-03-14T10:32:01.994Z,3.10
2023-03-14T10:35:30.546Z,2.60
2023-03-14T10:38:35.263Z,2.65
2023-03-14T10:41:37.858Z,2.87
2023-03-14T10:44:40.827Z,2.47
2023-03-14T10:47:50.844Z,2.45
2023-03-14T10:51:00.658Z,2.53
2023-03-14T10:54:04.601Z,2.53
2023-03-14T10:57:07.419Z,2.63
2023-03-14T11:00:22.014Z,2.40
2023-03-14T11:03:25.863Z,2.47
2023-03-14T11:06:34.390Z,2.97
2023-03-14T11:09:51.948Z,3.08
2023-03-14T11:13:16.215Z,2.60
2023-03-14T11:16:48.712Z,2.78
2023-03-14T11:20:13.800Z,2.65
2023-03-14T11:23:29.244Z,2.97
2023-03-14T11:26:35.140Z,2.15
2023-03-14T11:29:44.963Z,1.20
2023-03-14T11:33:03.376Z,0.95
2023-03-14T11:36:11.519Z,1.00
2023-03-14T11:39:17.939Z,1.27
2023-03-14T11:42:21.183Z,0.85
2023-03-14T11:45:35.774Z,1.33
2023-03-14T11:49:01.585Z,0.90
2023-03-14T11:52:18.912Z,1.30
2023-03-14T11:55:37.077Z,1.42
2023-03-14T11:58:44.495Z,0.70
2023-03-14T12:01:54.118Z,0.70
2023-03-14T12:05:22.220Z,0.80
2023-03-14T12:08:49.330Z,0.82
2023-03-14T12:12:01.183Z,0.85
2023-03-14T12:15:06.522Z,0.80
2023-03-14T12:18:21.597Z,1.07
2023-03-14T12:22:05.406Z,0.95
2023-03-14T12:25:17.276Z,0.90
2023-03-14T12:28:21.920Z,1.20
2023-03-14T12:31:34.258Z,1.10
2023-03-14T12:34:44.221Z,1.10
2023-03-14T12:37:48.322Z,0.90
2023-03-14T12:41:04.582Z,0.95
2023-03-14T12:44:31.943Z,0.70
2023-03-14T12:47:37.999Z,1.17
2023-03-14T12:50:55.483Z,0.90
2023-03-14T12:54:20.012Z,1.20
2023-03-14T12:57:46.753Z,1.25
2023-03-14T13:01:05.833Z,0.85
2023-03-14T13:04:11.999Z,0.80
2023-03-14T13:07:36.753Z,1.10
2023-03-14T13:10:44.593Z,1.30
2023-03-14T13:13:57.613Z,1.52
2023-03-14T13:17:19.234Z,0.85
2023-03-14T13:20:42.729Z,0.75
2023-03-14T13:24:02.762Z,0.80
2023-03-14T13:27:05.342Z,1.35
2023-03-14T13:30:26.363Z,1.30
2023-03-14T13:33:29.178Z,1.00
2023-03-14T13:36:31.669Z,1.38
2023-03-14T13:39:34.072Z,0.80
2023-03-14T13:42:36.591Z,1.00
2023-03-14T13:45:47.238Z,1.30
2023-03-14T13:48:51.859Z,1.00
2023-03-14T13:51:54.113Z,0.88
2023-03-14T13:54:57.717Z,1.00
2023-03-14T13:58:00.547Z,1.30
2023-03-14T14:01:06.729Z,1.73
2023-03-14T14:04:15.598Z,1.08
2023-03-14T14:07:19.571Z,1.40
2023-03-14T14:10:22.626Z,1.90
2023-03-14T14:13:26.221Z,1.80
2023-03-14T14:16:29.444Z,1.92
2023-03-14T14:19:33.264Z,2.00
2023-03-14T14:22:35.882Z,2.60
2023-03-14T14:25:38.366Z,1.63
2023-03-14T14:28:41.703Z,1.65
2023-03-14T14:31:45.460Z,2.15
2023-03-14T14:34:58.461Z,2.03
2023-03-14T14:38:00.959Z,2.10
2023-03-14T14:41:04.096Z,2.00
2023-03-14T14:44:06.661Z,1.65
2023-03-14T14:47:14.218Z,1.70
2023-03-14T14:50:34.346Z,2.15
2023-03-14T14:55:13.930Z,2.15
2023-03-14T15:03:30.118Z,2.03
2023-03-14T15:06:33.403Z,2.03
2023-03-14T15:09:36.685Z,1.90
2023-03-14T15:12:39.207Z,3.33
2023-03-14T15:15:42.771Z,2.23
2023-03-14T15:18:45.721Z,2.35
2023-03-14T15:21:48.079Z,2.25
2023-03-14T15:24:50.387Z,1.98
2023-03-14T15:27:52.735Z,2.25
2023-03-14T15:30:57.390Z,2.27
2023-03-14T15:34:02.748Z,2.25
2023-03-14T15:37:08.290Z,2.25
2023-03-14T15:40:15.108Z,2.50
2023-03-14T15:43:19.824Z,2.60
2023-03-14T15:46:25.581Z,2.50
2023-03-14T15:49:28.753Z,1.92
2023-03-14T15:52:31.590Z,2.90
2023-03-14T15:55:33.882Z,2.05
2023-03-14T15:58:36.350Z,2.60
2023-03-14T16:01:38.665Z,2.80
2023-03-14T16:04:41.180Z,3.03
2023-03-14T16:07:43.555Z,3.10
2023-03-14T16:10:47.683Z,2.75
2023-03-14T16:13:50.043Z,1.52
2023-03-14T16:16:56.006Z,1.30
2023-03-14T16:19:58.380Z,1.10
2023-03-14T16:23:02.059Z,1.23
2023-03-14T16:26:06.723Z,1.00
2023-03-14T16:29:09.000Z,0.80
2023-03-14T16:32:11.533Z,1.17
2023-03-14T16:35:13.907Z,1.05
2023-03-14T16:38:16.153Z,1.05
2023-03-14T16:41:20.381Z,1.55
2023-03-14T16:44:22.923Z,0.90
2023-03-14T16:47:25.265Z,1.20
2023-03-14T16:50:27.699Z,1.02
2023-03-14T16:53:30.468Z,0.82
2023-03-14T16:56:32.834Z,1.60
2023-03-14T16:59:36.300Z,1.38
2023-03-14T17:02:41.353Z,1.20
2023-03-14T17:05:48.480Z,1.13
2023-03-14T17:08:51.374Z,1.02
2023-03-14T17:11:55.825Z,0.80
2023-03-14T17:15:00.340Z,0.63
2023-03-14T17:18:05.918Z,0.70
2023-03-14T17:21:08.351Z,0.80
2023-03-14T17:24:10.807Z,0.88
2023-03-14T17:27:15.245Z,1.00
2023-03-14T17:30:17.702Z,1.10
2023-03-14T17:33:19.985Z,0.90
2023-03-14T17:36:29.010Z,0.90
2023-03-14T17:39:31.403Z,0.80
2023-03-14T17:42:33.787Z,0.70
2023-03-14T17:45:36.114Z,0.80
2023-03-14T17:48:38.657Z,0.90
2023-03-14T17:51:40.973Z,1.25
2023-03-14T17:54:43.278Z,1.00
2023-03-14T17:57:45.657Z,0.77
2023-03-14T18:00:48.077Z,0.93
2023-03-14T18:03:56.492Z,0.80
2023-03-14T18:06:58.988Z,0.80
2023-03-14T18:10:02.058Z,0.90
2023-03-14T18:13:04.428Z,1.00
2023-03-14T18:16:08.277Z,1.00
2023-03-14T18:19:10.884Z,0.80
2023-03-14T18:22:13.278Z,1.10
2023-03-14T18:25:15.598Z,0.80
2023-03-14T18:28:18.756Z,0.80
2023-03-14T18:31:23.316Z,0.60
2023-03-14T18:34:26.538Z,0.70
2023-03-14T18:37:28.924Z,0.60
2023-03-14T18:40:31.234Z,0.70
2023-03-14T18:43:34.985Z,0.70
2023-03-14T18:46:37.526Z,0.50
2023-03-14T18:49:40.772Z,0.63
2023-03-14T18:52:43.068Z,0.75
2023-03-14T18:55:45.328Z,0.90
2023-03-14T18:58:47.883Z,0.60
2023-03-14T19:01:50.204Z,0.90
2023-03-14T19:04:53.049Z,0.90
2023-03-14T19:07:58.258Z,0.77
2023-03-14T19:11:03.907Z,1.00
2023-03-14T19:14:06.332Z,0.40
2023-03-14T19:17:08.732Z,0.77
2023-03-14T19:20:11.792Z,0.87
2023-03-14T19:23:14.618Z,0.80
2023-03-14T19:26:18.290Z,0.80
2023-03-14T19:29:20.609Z,0.68
2023-03-14T19:32:22.955Z,0.80
2023-03-14T19:35:25.339Z,0.67
2023-03-14T19:38:27.588Z,0.68
2023-03-14T19:41:31.162Z,0.70
2023-03-14T19:44:33.482Z,0.95
2023-03-14T19:47:36.120Z,0.98
2023-03-14T19:50:39.304Z,0.70
2023-03-14T19:53:42.709Z,1.08
2023-03-14T19:56:46.324Z,0.90
2023-03-14T19:59:48.644Z,1.10
2023-03-14T20:02:51.988Z,1.25
2023-03-14T20:05:54.512Z,1.20
2023-03-14T20:08:59.168Z,1.70
2023-03-14T20:12:01.699Z,1.83
2023-03-14T20:15:04.410Z,0.90
2023-03-14T20:18:09.094Z,0.90
2023-03-14T20:21:14.264Z,0.63
2023-03-14T20:24:16.939Z,0.68
2023-03-14T20:27:19.306Z,0.85
2023-03-14T20:30:23.792Z,0.80
2023-03-14T20:33:26.110Z,0.93
2023-03-14T20:36:28.411Z,0.77
2023-03-14T20:39:32.947Z,0.90
2023-03-14T20:42:36.456Z,1.48
2023-03-14T20:45:38.816Z,0.80
2023-03-14T20:48:41.168Z,1.23
2023-03-14T20:51:43.531Z,1.10
2023-03-14T20:54:46.426Z,1.33
2023-03-14T20:57:48.692Z,2.38
2023-03-14T21:00:53.474Z,1.40
2023-03-14T21:03:55.796Z,1.23
2023-03-14T21:06:58.065Z,0.90
2023-03-14T21:10:00.479Z,0.98
2023-03-14T21:13:02.798Z,1.15
2023-03-14T21:16:05.560Z,0.98
2023-03-14T21:19:08.140Z,1.13
2023-03-14T21:22:18.367Z,1.20
2023-03-14T21:25:20.748Z,0.90
2023-03-14T21:28:23.927Z,1.23
2023-03-14T21:31:27.976Z,1.20
2023-03-14T21:34:30.797Z,0.98
2023-03-14T21:37:33.117Z,1.00
2023-03-14T21:40:40.066Z,1.13
2023-03-14T21:43:44.123Z,1.10
2023-03-14T21:46:46.929Z,1.33
2023-03-14T21:49:50.696Z,0.98
2023-03-14T21:52:57.042Z,1.07
2023-03-14T21:55:59.660Z,1.10
2023-03-14T21:59:02.027Z,1.00
2023-03-14T22:02:06.537Z,1.20
2023-03-14T22:05:13.012Z,1.10
2023-03-14T22:08:16.936Z,1.30
2023-03-14T22:11:19.207Z,1.40
2023-03-14T22:14:21.567Z,1.70
2023-03-14T22:17:24.025Z,2.13
2023-03-14T22:20:26.316Z,2.15
2023-03-14T22:23:28.681Z,2.57
2023-03-14T22:26:31.137Z,2.60
2023-03-14T22:29:37.562Z,2.28
2023-03-14T22:32:39.934Z,3.17
2023-03-14T22:35:42.281Z,3.20
2023-03-14T22:38:44.569Z,2.90
2023-03-14T22:41:46.931Z,3.42
2023-03-14T22:44:52.072Z,3.40
2023-03-14T22:47:54.432Z,4.05
2023-03-14T22:50:57.326Z,4.47
2023-03-14T22:53:59.597Z,4.40
2023-03-14T22:57:01.895Z,3.70
2023-03-14T23:00:08.245Z,3.75
2023-03-14T23:03:10.581Z,4.15
2023-03-14T23:06:12.905Z,3.42
2023-03-14T23:09:15.374Z,3.53
2023-03-14T23:12:17.842Z,3.40
2023-03-14T23:15:20.155Z,3.00
2023-03-14T23:18:27.349Z,2.97
2023-03-14T23:21:29.763Z,3.20
2023-03-14T23:24:33.590Z,2.90
2023-03-14T23:27:35.961Z,3.05
2023-03-14T23:30:39.975Z,3.10
2023-03-14T23:33:43.530Z,3.35
2023-03-14T23:36:46.092Z,3.55
2023-03-14T23:39:48.402Z,2.90
2023-03-14T23:42:50.689Z,3.00
2023-03-14T23:45:54.908Z,2.60
2023-03-14T23:48:57.652Z,2.60
2023-03-14T23:51:59.922Z,3.05
2023-03-14T23:55:02.263Z,2.67
2023-03-14T23:58:04.806Z,2.83
